sensor_id;sensor_type;location;lat;lon;timestamp;temperature;humidity
21891;DHT22;11110;52.386;16.940;2022-12-11T00:02:02;14.20;41.00
21891;DHT22;11110;52.386;16.940;2022-12-11T00:04:31;14.20;41.00
21891;DHT22;11110;52.386;16.940;2022-12-11T00:07:00;14.30;41.00
21891;DHT22;11110;52.386;16.940;2022-12-11T00:09:29;14.30;41.00
21891;DHT22;11110;52.386;16.940;2022-12-11T00:11:58;14.40;40.80
21891;DHT22;11110;52.386;16.940;2022-12-11T00:14:29;14.40;40.70
21891;DHT22;11110;52.386;16.940;2022-12-11T00:16:59;14.40;40.70
21891;DHT22;11110;52.386;16.940;2022-12-11T00:19:27;14.50;40.70
21891;DHT22;11110;52.386;16.940;2022-12-11T00:21:56;14.50;40.70
21891;DHT22;11110;52.386;16.940;2022-12-11T00:24:24;14.40;40.60
21891;DHT22;11110;52.386;16.940;2022-12-11T00:26:53;14.30;40.60
21891;DHT22;11110;52.386;16.940;2022-12-11T00:29:21;14.20;40.80
21891;DHT22;11110;52.386;16.940;2022-12-11T00:31:50;14.10;40.90
21891;DHT22;11110;52.386;16.940;2022-12-11T00:34:20;13.90;41.00
21891;DHT22;11110;52.386;16.940;2022-12-11T00:36:48;13.90;41.20
21891;DHT22;11110;52.386;16.940;2022-12-11T00:39:17;13.80;41.30
21891;DHT22;11110;52.386;16.940;2022-12-11T00:41:45;13.80;41.40
21891;DHT22;11110;52.386;16.940;2022-12-11T00:44:14;13.80;41.30
21891;DHT22;11110;52.386;16.940;2022-12-11T00:46:42;13.80;41.20
21891;DHT22;11110;52.386;16.940;2022-12-11T00:49:11;13.80;41.30
21891;DHT22;11110;52.386;16.940;2022-12-11T00:51:41;13.80;41.20
21891;DHT22;11110;52.386;16.940;2022-12-11T00:54:09;13.80;41.20
21891;DHT22;11110;52.386;16.940;2022-12-11T00:56:38;13.70;41.20
21891;DHT22;11110;52.386;16.940;2022-12-11T00:59:07;13.70;41.20
21891;DHT22;11110;52.386;16.940;2022-12-11T01:01:35;13.80;41.20
21891;DHT22;11110;52.386;16.940;2022-12-11T01:04:04;13.90;41.20
21891;DHT22;11110;52.386;16.940;2022-12-11T01:06:32;13.90;41.00
21891;DHT22;11110;52.386;16.940;2022-12-11T01:09:03;13.90;40.80
21891;DHT22;11110;52.386;16.940;2022-12-11T01:11:49;13.90;40.80
21891;DHT22;11110;52.386;16.940;2022-12-11T01:14:17;13.90;40.80
21891;DHT22;11110;52.386;16.940;2022-12-11T01:16:45;13.90;40.70
21891;DHT22;11110;52.386;16.940;2022-12-11T01:19:14;14.00;40.70
21891;DHT22;11110;52.386;16.940;2022-12-11T01:21:43;14.10;40.50
21891;DHT22;11110;52.386;16.940;2022-12-11T01:24:13;14.20;40.40
21891;DHT22;11110;52.386;16.940;2022-12-11T01:26:41;14.20;40.30
21891;DHT22;11110;52.386;16.940;2022-12-11T01:29:10;14.20;40.30
21891;DHT22;11110;52.386;16.940;2022-12-11T01:31:38;14.20;40.20
21891;DHT22;11110;52.386;16.940;2022-12-11T01:34:07;14.20;40.10
21891;DHT22;11110;52.386;16.940;2022-12-11T01:36:35;14.20;40.10
21891;DHT22;11110;52.386;16.940;2022-12-11T01:39:03;14.20;40.10
21891;DHT22;11110;52.386;16.940;2022-12-11T01:41:33;14.10;40.10
21891;DHT22;11110;52.386;16.940;2022-12-11T01:44:04;14.10;40.20
21891;DHT22;11110;52.386;16.940;2022-12-11T01:46:35;14.00;40.30
21891;DHT22;11110;52.386;16.940;2022-12-11T01:49:06;14.00;40.30
21891;DHT22;11110;52.386;16.940;2022-12-11T01:51:39;14.10;40.30
21891;DHT22;11110;52.386;16.940;2022-12-11T01:54:10;14.20;40.10
21891;DHT22;11110;52.386;16.940;2022-12-11T01:56:41;14.10;40.10
21891;DHT22;11110;52.386;16.940;2022-12-11T01:59:11;14.20;40.10
21891;DHT22;11110;52.386;16.940;2022-12-11T02:01:44;14.30;40.00
21891;DHT22;11110;52.386;16.940;2022-12-11T02:04:17;14.20;40.00
21891;DHT22;11110;52.386;16.940;2022-12-11T02:06:48;14.10;39.90
21891;DHT22;11110;52.386;16.940;2022-12-11T02:09:20;14.10;40.00
21891;DHT22;11110;52.386;16.940;2022-12-11T02:11:54;14.10;40.00
21891;DHT22;11110;52.386;16.940;2022-12-11T02:14:31;14.30;39.80
21891;DHT22;11110;52.386;16.940;2022-12-11T02:17:05;14.30;39.70
21891;DHT22;11110;52.386;16.940;2022-12-11T02:19:51;14.30;39.70
21891;DHT22;11110;52.386;16.940;2022-12-11T02:22:45;14.30;39.60
21891;DHT22;11110;52.386;16.940;2022-12-11T02:25:20;14.40;39.80
21891;DHT22;11110;52.386;16.940;2022-12-11T02:28:15;14.50;39.60
21891;DHT22;11110;52.386;16.940;2022-12-11T02:30:47;14.50;39.50
21891;DHT22;11110;52.386;16.940;2022-12-11T02:33:22;14.50;39.40
21891;DHT22;11110;52.386;16.940;2022-12-11T02:35:53;14.60;39.20
21891;DHT22;11110;52.386;16.940;2022-12-11T02:38:25;14.50;39.30
21891;DHT22;11110;52.386;16.940;2022-12-11T02:40:57;14.50;39.40
21891;DHT22;11110;52.386;16.940;2022-12-11T02:43:29;14.50;39.30
21891;DHT22;11110;52.386;16.940;2022-12-11T02:45:59;14.40;39.20
21891;DHT22;11110;52.386;16.940;2022-12-11T02:48:29;14.20;39.20
21891;DHT22;11110;52.386;16.940;2022-12-11T02:51:00;14.20;39.40
21891;DHT22;11110;52.386;16.940;2022-12-11T02:53:31;14.20;39.50
21891;DHT22;11110;52.386;16.940;2022-12-11T02:56:05;14.30;39.40
21891;DHT22;11110;52.386;16.940;2022-12-11T02:58:41;14.30;39.30
21891;DHT22;11110;52.386;16.940;2022-12-11T03:01:11;14.30;39.30
21891;DHT22;11110;52.386;16.940;2022-12-11T03:03:39;14.30;39.30
21891;DHT22;11110;52.386;16.940;2022-12-11T03:06:10;14.20;39.20
21891;DHT22;11110;52.386;16.940;2022-12-11T03:08:41;14.20;39.20
21891;DHT22;11110;52.386;16.940;2022-12-11T03:11:09;14.10;39.20
21891;DHT22;11110;52.386;16.940;2022-12-11T03:13:41;13.90;39.40
21891;DHT22;11110;52.386;16.940;2022-12-11T03:16:13;13.90;39.60
21891;DHT22;11110;52.386;16.940;2022-12-11T03:18:47;14.00;39.70
21891;DHT22;11110;52.386;16.940;2022-12-11T03:21:23;14.10;39.60
21891;DHT22;11110;52.386;16.940;2022-12-11T03:23:59;14.10;39.50
21891;DHT22;11110;52.386;16.940;2022-12-11T03:26:31;14.20;39.40
21891;DHT22;11110;52.386;16.940;2022-12-11T03:29:09;14.30;39.30
21891;DHT22;11110;52.386;16.940;2022-12-11T03:31:42;14.50;38.80
21891;DHT22;11110;52.386;16.940;2022-12-11T03:34:15;14.30;38.80
21891;DHT22;11110;52.386;16.940;2022-12-11T03:36:46;14.20;39.00
21891;DHT22;11110;52.386;16.940;2022-12-11T03:39:19;14.20;39.10
21891;DHT22;11110;52.386;16.940;2022-12-11T03:41:50;14.10;39.10
21891;DHT22;11110;52.386;16.940;2022-12-11T03:44:20;14.00;39.20
21891;DHT22;11110;52.386;16.940;2022-12-11T03:46:50;14.00;39.40
21891;DHT22;11110;52.386;16.940;2022-12-11T03:49:21;14.00;39.30
21891;DHT22;11110;52.386;16.940;2022-12-11T03:51:52;14.00;39.20
21891;DHT22;11110;52.386;16.940;2022-12-11T03:54:22;13.90;39.40
21891;DHT22;11110;52.386;16.940;2022-12-11T03:56:54;13.80;39.40
21891;DHT22;11110;52.386;16.940;2022-12-11T03:59:24;13.80;39.50
21891;DHT22;11110;52.386;16.940;2022-12-11T04:01:53;13.60;39.60
21891;DHT22;11110;52.386;16.940;2022-12-11T04:04:22;13.50;39.70
21891;DHT22;11110;52.386;16.940;2022-12-11T04:06:50;13.60;39.70
21891;DHT22;11110;52.386;16.940;2022-12-11T04:09:19;13.70;39.60
21891;DHT22;11110;52.386;16.940;2022-12-11T04:11:47;13.70;39.60
21891;DHT22;11110;52.386;16.940;2022-12-11T04:14:16;13.60;39.60
21891;DHT22;11110;52.386;16.940;2022-12-11T04:17:04;13.60;39.60
21891;DHT22;11110;52.386;16.940;2022-12-11T04:19:32;13.50;39.60
21891;DHT22;11110;52.386;16.940;2022-12-11T04:22:18;13.60;39.50
21891;DHT22;11110;52.386;16.940;2022-12-11T04:25:06;13.60;39.50
21891;DHT22;11110;52.386;16.940;2022-12-11T04:27:36;13.60;39.50
21891;DHT22;11110;52.386;16.940;2022-12-11T04:30:18;13.60;39.30
21891;DHT22;11110;52.386;16.940;2022-12-11T04:32:52;13.60;39.30
21891;DHT22;11110;52.386;16.940;2022-12-11T04:35:21;13.70;39.20
21891;DHT22;11110;52.386;16.940;2022-12-11T04:37:51;13.70;39.10
21891;DHT22;11110;52.386;16.940;2022-12-11T04:40:19;13.60;39.20
21891;DHT22;11110;52.386;16.940;2022-12-11T04:42:48;13.50;39.10
21891;DHT22;11110;52.386;16.940;2022-12-11T04:45:17;13.30;39.30
21891;DHT22;11110;52.386;16.940;2022-12-11T04:47:45;13.20;39.50
21891;DHT22;11110;52.386;16.940;2022-12-11T04:50:15;13.20;39.60
21891;DHT22;11110;52.386;16.940;2022-12-11T04:52:44;13.20;39.50
21891;DHT22;11110;52.386;16.940;2022-12-11T04:55:12;13.20;39.60
21891;DHT22;11110;52.386;16.940;2022-12-11T04:57:41;13.30;39.60
21891;DHT22;11110;52.386;16.940;2022-12-11T05:00:11;13.30;39.40
21891;DHT22;11110;52.386;16.940;2022-12-11T05:02:40;13.40;39.20
21891;DHT22;11110;52.386;16.940;2022-12-11T05:05:10;13.50;39.10
21891;DHT22;11110;52.386;16.940;2022-12-11T05:07:40;13.50;39.10
21891;DHT22;11110;52.386;16.940;2022-12-11T05:10:09;13.70;38.90
21891;DHT22;11110;52.386;16.940;2022-12-11T05:12:38;13.50;38.90
21891;DHT22;11110;52.386;16.940;2022-12-11T05:15:07;13.50;38.80
21891;DHT22;11110;52.386;16.940;2022-12-11T05:17:36;13.30;38.90
21891;DHT22;11110;52.386;16.940;2022-12-11T05:20:06;13.20;39.10
21891;DHT22;11110;52.386;16.940;2022-12-11T05:22:36;13.20;39.20
21891;DHT22;11110;52.386;16.940;2022-12-11T05:25:06;13.30;39.10
21891;DHT22;11110;52.386;16.940;2022-12-11T05:27:36;13.20;39.10
21891;DHT22;11110;52.386;16.940;2022-12-11T05:30:05;13.10;39.10
21891;DHT22;11110;52.386;16.940;2022-12-11T05:32:34;13.30;39.00
21891;DHT22;11110;52.386;16.940;2022-12-11T05:35:03;13.50;38.80
21891;DHT22;11110;52.386;16.940;2022-12-11T05:37:32;13.50;38.70
21891;DHT22;11110;52.386;16.940;2022-12-11T05:40:01;13.50;38.70
21891;DHT22;11110;52.386;16.940;2022-12-11T05:42:31;13.60;38.60
21891;DHT22;11110;52.386;16.940;2022-12-11T05:45:00;13.60;38.30
21891;DHT22;11110;52.386;16.940;2022-12-11T05:47:29;13.70;38.30
21891;DHT22;11110;52.386;16.940;2022-12-11T05:49:58;13.70;38.20
21891;DHT22;11110;52.386;16.940;2022-12-11T05:52:26;13.90;38.10
21891;DHT22;11110;52.386;16.940;2022-12-11T05:54:54;14.00;38.00
21891;DHT22;11110;52.386;16.940;2022-12-11T05:57:23;14.00;37.80
21891;DHT22;11110;52.386;16.940;2022-12-11T05:59:53;14.10;37.70
21891;DHT22;11110;52.386;16.940;2022-12-11T06:02:21;14.10;37.50
21891;DHT22;11110;52.386;16.940;2022-12-11T06:04:49;14.10;37.50
21891;DHT22;11110;52.386;16.940;2022-12-11T06:07:18;14.10;37.50
21891;DHT22;11110;52.386;16.940;2022-12-11T06:09:46;14.00;37.40
21891;DHT22;11110;52.386;16.940;2022-12-11T06:12:15;13.90;37.50
21891;DHT22;11110;52.386;16.940;2022-12-11T06:14:44;13.80;37.50
21891;DHT22;11110;52.386;16.940;2022-12-11T06:17:14;13.80;37.50
21891;DHT22;11110;52.386;16.940;2022-12-11T06:19:42;13.80;37.60
21891;DHT22;11110;52.386;16.940;2022-12-11T06:22:10;13.80;37.70
21891;DHT22;11110;52.386;16.940;2022-12-11T06:24:39;13.90;37.50
21891;DHT22;11110;52.386;16.940;2022-12-11T06:27:07;14.10;37.30
21891;DHT22;11110;52.386;16.940;2022-12-11T06:29:36;14.20;37.20
21891;DHT22;11110;52.386;16.940;2022-12-11T06:32:04;14.10;37.40
21891;DHT22;11110;52.386;16.940;2022-12-11T06:34:34;14.20;37.60
21891;DHT22;11110;52.386;16.940;2022-12-11T06:37:03;14.20;37.40
21891;DHT22;11110;52.386;16.940;2022-12-11T06:39:31;14.10;37.50
21891;DHT22;11110;52.386;16.940;2022-12-11T06:42:00;14.10;37.60
21891;DHT22;11110;52.386;16.940;2022-12-11T06:44:28;14.10;37.80
21891;DHT22;11110;52.386;16.940;2022-12-11T06:46:57;14.00;38.60
21891;DHT22;11110;52.386;16.940;2022-12-11T06:49:25;14.00;37.90
21891;DHT22;11110;52.386;16.940;2022-12-11T06:51:55;14.10;37.60
21891;DHT22;11110;52.386;16.940;2022-12-11T06:54:24;13.90;38.00
21891;DHT22;11110;52.386;16.940;2022-12-11T06:56:53;13.90;38.10
21891;DHT22;11110;52.386;16.940;2022-12-11T06:59:22;13.90;38.10
21891;DHT22;11110;52.386;16.940;2022-12-11T07:01:50;13.80;38.10
21891;DHT22;11110;52.386;16.940;2022-12-11T07:04:19;13.70;38.30
21891;DHT22;11110;52.386;16.940;2022-12-11T07:06:50;13.80;38.50
21891;DHT22;11110;52.386;16.940;2022-12-11T07:09:20;13.70;38.40
21891;DHT22;11110;52.386;16.940;2022-12-11T07:11:50;13.90;38.30
21891;DHT22;11110;52.386;16.940;2022-12-11T07:14:19;13.80;38.40
21891;DHT22;11110;52.386;16.940;2022-12-11T07:16:48;13.70;38.50
21891;DHT22;11110;52.386;16.940;2022-12-11T07:19:17;13.60;38.60
21891;DHT22;11110;52.386;16.940;2022-12-11T07:21:46;13.80;38.50
21891;DHT22;11110;52.386;16.940;2022-12-11T07:24:14;13.60;38.40
21891;DHT22;11110;52.386;16.940;2022-12-11T07:26:44;13.90;38.10
21891;DHT22;11110;52.386;16.940;2022-12-11T07:29:13;13.80;38.30
21891;DHT22;11110;52.386;16.940;2022-12-11T07:31:42;13.60;38.50
21891;DHT22;11110;52.386;16.940;2022-12-11T07:34:11;13.60;38.80
21891;DHT22;11110;52.386;16.940;2022-12-11T07:36:41;13.60;38.80
21891;DHT22;11110;52.386;16.940;2022-12-11T07:39:10;13.70;38.80
21891;DHT22;11110;52.386;16.940;2022-12-11T07:41:39;13.50;38.80
21891;DHT22;11110;52.386;16.940;2022-12-11T07:44:11;13.50;38.80
21891;DHT22;11110;52.386;16.940;2022-12-11T07:46:40;13.40;39.00
21891;DHT22;11110;52.386;16.940;2022-12-11T07:49:08;13.40;39.10
21891;DHT22;11110;52.386;16.940;2022-12-11T07:51:37;13.40;39.10
21891;DHT22;11110;52.386;16.940;2022-12-11T07:54:07;13.50;39.20
21891;DHT22;11110;52.386;16.940;2022-12-11T07:56:37;13.40;39.10
21891;DHT22;11110;52.386;16.940;2022-12-11T07:59:11;13.40;39.10
21891;DHT22;11110;52.386;16.940;2022-12-11T08:01:40;13.20;39.10
21891;DHT22;11110;52.386;16.940;2022-12-11T08:04:09;13.20;39.10
21891;DHT22;11110;52.386;16.940;2022-12-11T08:06:39;13.10;38.90
21891;DHT22;11110;52.386;16.940;2022-12-11T08:09:09;13.00;38.90
21891;DHT22;11110;52.386;16.940;2022-12-11T08:11:45;12.90;38.80
21891;DHT22;11110;52.386;16.940;2022-12-11T08:14:16;12.80;38.80
21891;DHT22;11110;52.386;16.940;2022-12-11T08:16:45;12.90;38.90
21891;DHT22;11110;52.386;16.940;2022-12-11T08:19:14;13.00;38.70
21891;DHT22;11110;52.386;16.940;2022-12-11T08:21:44;13.10;38.60
21891;DHT22;11110;52.386;16.940;2022-12-11T08:24:13;13.10;38.40
21891;DHT22;11110;52.386;16.940;2022-12-11T08:26:46;13.50;37.30
21891;DHT22;11110;52.386;16.940;2022-12-11T08:29:16;13.50;37.30
21891;DHT22;11110;52.386;16.940;2022-12-11T08:31:45;13.30;37.60
21891;DHT22;11110;52.386;16.940;2022-12-11T08:34:13;13.20;37.80
21891;DHT22;11110;52.386;16.940;2022-12-11T08:36:42;13.10;37.90
21891;DHT22;11110;52.386;16.940;2022-12-11T08:39:10;13.00;38.00
21891;DHT22;11110;52.386;16.940;2022-12-11T08:41:39;12.80;38.10
21891;DHT22;11110;52.386;16.940;2022-12-11T08:44:11;12.70;38.30
21891;DHT22;11110;52.386;16.940;2022-12-11T08:46:45;12.60;38.50
21891;DHT22;11110;52.386;16.940;2022-12-11T08:49:14;12.60;38.60
21891;DHT22;11110;52.386;16.940;2022-12-11T08:51:42;12.50;38.60
21891;DHT22;11110;52.386;16.940;2022-12-11T08:54:10;12.50;38.50
21891;DHT22;11110;52.386;16.940;2022-12-11T08:56:39;12.40;38.70
21891;DHT22;11110;52.386;16.940;2022-12-11T08:59:07;12.30;38.80
21891;DHT22;11110;52.386;16.940;2022-12-11T09:01:36;12.30;38.90
21891;DHT22;11110;52.386;16.940;2022-12-11T09:04:06;12.40;38.90
21891;DHT22;11110;52.386;16.940;2022-12-11T09:06:35;12.50;38.80
21891;DHT22;11110;52.386;16.940;2022-12-11T09:09:03;12.40;38.80
21891;DHT22;11110;52.386;16.940;2022-12-11T09:11:34;12.40;38.90
21891;DHT22;11110;52.386;16.940;2022-12-11T09:14:03;12.40;39.00
21891;DHT22;11110;52.386;16.940;2022-12-11T09:16:35;12.50;39.00
21891;DHT22;11110;52.386;16.940;2022-12-11T09:19:11;12.50;39.00
21891;DHT22;11110;52.386;16.940;2022-12-11T09:21:41;12.60;39.10
21891;DHT22;11110;52.386;16.940;2022-12-11T09:24:10;12.60;39.00
21891;DHT22;11110;52.386;16.940;2022-12-11T09:26:40;12.40;38.90
21891;DHT22;11110;52.386;16.940;2022-12-11T09:29:10;12.30;39.00
21891;DHT22;11110;52.386;16.940;2022-12-11T09:31:39;12.30;39.20
21891;DHT22;11110;52.386;16.940;2022-12-11T09:34:11;12.40;39.10
21891;DHT22;11110;52.386;16.940;2022-12-11T09:36:41;12.50;39.00
21891;DHT22;11110;52.386;16.940;2022-12-11T09:39:11;12.70;39.00
21891;DHT22;11110;52.386;16.940;2022-12-11T09:41:49;12.70;38.80
21891;DHT22;11110;52.386;16.940;2022-12-11T09:44:29;12.70;38.70
21891;DHT22;11110;52.386;16.940;2022-12-11T09:46:58;12.60;38.80
21891;DHT22;11110;52.386;16.940;2022-12-11T09:49:34;12.60;39.00
21891;DHT22;11110;52.386;16.940;2022-12-11T09:52:10;12.70;38.90
21891;DHT22;11110;52.386;16.940;2022-12-11T09:54:44;12.60;39.00
21891;DHT22;11110;52.386;16.940;2022-12-11T09:57:25;12.50;39.80
21891;DHT22;11110;52.386;16.940;2022-12-11T10:00:04;12.50;39.20
21891;DHT22;11110;52.386;16.940;2022-12-11T10:02:49;12.60;39.20
21891;DHT22;11110;52.386;16.940;2022-12-11T10:05:29;12.60;39.20
21891;DHT22;11110;52.386;16.940;2022-12-11T10:08:04;12.70;39.20
21891;DHT22;11110;52.386;16.940;2022-12-11T10:10:41;12.80;39.20
21891;DHT22;11110;52.386;16.940;2022-12-11T10:13:21;12.80;39.00
21891;DHT22;11110;52.386;16.940;2022-12-11T10:15:56;12.90;38.90
21891;DHT22;11110;52.386;16.940;2022-12-11T10:18:28;12.80;38.90
21891;DHT22;11110;52.386;16.940;2022-12-11T10:21:00;12.90;39.10
21891;DHT22;11110;52.386;16.940;2022-12-11T10:23:35;13.00;38.90
21891;DHT22;11110;52.386;16.940;2022-12-11T10:26:07;13.10;38.90
21891;DHT22;11110;52.386;16.940;2022-12-11T10:28:38;13.00;38.80
21891;DHT22;11110;52.386;16.940;2022-12-11T10:31:13;13.00;38.90
21891;DHT22;11110;52.386;16.940;2022-12-11T10:33:52;12.90;39.00
21891;DHT22;11110;52.386;16.940;2022-12-11T10:36:27;12.90;39.10
21891;DHT22;11110;52.386;16.940;2022-12-11T10:38:57;13.00;39.20
21891;DHT22;11110;52.386;16.940;2022-12-11T10:41:35;13.00;39.10
21891;DHT22;11110;52.386;16.940;2022-12-11T10:44:14;12.80;39.10
21891;DHT22;11110;52.386;16.940;2022-12-11T10:46:45;12.70;39.30
21891;DHT22;11110;52.386;16.940;2022-12-11T10:49:22;12.50;39.50
21891;DHT22;11110;52.386;16.940;2022-12-11T10:51:53;12.20;39.90
21891;DHT22;11110;52.386;16.940;2022-12-11T10:54:30;12.20;40.20
21891;DHT22;11110;52.386;16.940;2022-12-11T10:57:01;12.20;40.30
21891;DHT22;11110;52.386;16.940;2022-12-11T10:59:34;12.30;40.30
21891;DHT22;11110;52.386;16.940;2022-12-11T11:02:04;12.30;40.40
21891;DHT22;11110;52.386;16.940;2022-12-11T11:04:36;12.40;40.20
21891;DHT22;11110;52.386;16.940;2022-12-11T11:07:13;12.40;40.20
21891;DHT22;11110;52.386;16.940;2022-12-11T11:09:43;12.50;40.20
21891;DHT22;11110;52.386;16.940;2022-12-11T11:12:19;12.40;40.10
21891;DHT22;11110;52.386;16.940;2022-12-11T11:14:58;12.30;40.30
21891;DHT22;11110;52.386;16.940;2022-12-11T11:17:29;12.40;40.30
21891;DHT22;11110;52.386;16.940;2022-12-11T11:20:12;12.50;40.30
21891;DHT22;11110;52.386;16.940;2022-12-11T11:22:45;12.50;40.00
21891;DHT22;11110;52.386;16.940;2022-12-11T11:25:17;12.60;40.00
21891;DHT22;11110;52.386;16.940;2022-12-11T11:27:52;12.50;39.90
21891;DHT22;11110;52.386;16.940;2022-12-11T11:30:24;12.60;40.10
21891;DHT22;11110;52.386;16.940;2022-12-11T11:32:54;12.70;40.00
21891;DHT22;11110;52.386;16.940;2022-12-11T11:35:25;12.80;40.00
21891;DHT22;11110;52.386;16.940;2022-12-11T11:38:01;13.20;40.00
21891;DHT22;11110;52.386;16.940;2022-12-11T11:40:36;13.40;39.60
21891;DHT22;11110;52.386;16.940;2022-12-11T11:43:13;13.50;39.00
21891;DHT22;11110;52.386;16.940;2022-12-11T11:45:48;13.60;38.80
21891;DHT22;11110;52.386;16.940;2022-12-11T11:48:30;13.50;38.80
21891;DHT22;11110;52.386;16.940;2022-12-11T11:51:07;13.60;38.80
21891;DHT22;11110;52.386;16.940;2022-12-11T11:53:45;13.30;38.90
21891;DHT22;11110;52.386;16.940;2022-12-11T11:56:21;13.20;39.00
21891;DHT22;11110;52.386;16.940;2022-12-11T11:58:58;13.30;39.20
21891;DHT22;11110;52.386;16.940;2022-12-11T12:01:29;13.10;39.10
21891;DHT22;11110;52.386;16.940;2022-12-11T12:03:58;13.10;39.20
21891;DHT22;11110;52.386;16.940;2022-12-11T12:06:54;13.20;38.80
21891;DHT22;11110;52.386;16.940;2022-12-11T12:09:33;13.20;38.70
21891;DHT22;11110;52.386;16.940;2022-12-11T12:12:13;13.10;38.80
21891;DHT22;11110;52.386;16.940;2022-12-11T12:15:00;13.10;38.40
21891;DHT22;11110;52.386;16.940;2022-12-11T12:17:34;13.10;38.70
21891;DHT22;11110;52.386;16.940;2022-12-11T12:20:12;13.10;38.50
21891;DHT22;11110;52.386;16.940;2022-12-11T12:22:56;13.00;38.70
21891;DHT22;11110;52.386;16.940;2022-12-11T12:25:35;13.10;38.50
21891;DHT22;11110;52.386;16.940;2022-12-11T12:28:15;13.20;38.30
21891;DHT22;11110;52.386;16.940;2022-12-11T12:30:54;13.30;38.20
21891;DHT22;11110;52.386;16.940;2022-12-11T12:33:33;13.20;38.20
21891;DHT22;11110;52.386;16.940;2022-12-11T12:36:13;13.50;37.70
21891;DHT22;11110;52.386;16.940;2022-12-11T12:38:52;13.20;37.90
21891;DHT22;11110;52.386;16.940;2022-12-11T12:41:32;13.30;38.00
21891;DHT22;11110;52.386;16.940;2022-12-11T12:44:11;13.40;37.80
21891;DHT22;11110;52.386;16.940;2022-12-11T12:46:50;13.30;37.90
21891;DHT22;11110;52.386;16.940;2022-12-11T12:49:34;13.20;38.10
21891;DHT22;11110;52.386;16.940;2022-12-11T12:52:05;13.30;38.10
21891;DHT22;11110;52.386;16.940;2022-12-11T12:54:34;13.40;38.00
21891;DHT22;11110;52.386;16.940;2022-12-11T12:57:04;13.50;37.90
21891;DHT22;11110;52.386;16.940;2022-12-11T12:59:33;13.60;37.70
21891;DHT22;11110;52.386;16.940;2022-12-11T13:02:03;13.70;37.50
21891;DHT22;11110;52.386;16.940;2022-12-11T13:04:39;13.50;37.50
21891;DHT22;11110;52.386;16.940;2022-12-11T13:07:27;13.50;37.80
21891;DHT22;11110;52.386;16.940;2022-12-11T13:10:06;13.60;37.90
21891;DHT22;11110;52.386;16.940;2022-12-11T13:12:44;13.80;37.90
21891;DHT22;11110;52.386;16.940;2022-12-11T13:15:30;14.00;37.50
21891;DHT22;11110;52.386;16.940;2022-12-11T13:18:00;14.10;37.60
21891;DHT22;11110;52.386;16.940;2022-12-11T13:20:31;14.10;37.40
21891;DHT22;11110;52.386;16.940;2022-12-11T13:23:18;14.10;37.20
21891;DHT22;11110;52.386;16.940;2022-12-11T13:25:50;14.00;37.20
21891;DHT22;11110;52.386;16.940;2022-12-11T13:28:24;13.70;37.40
21891;DHT22;11110;52.386;16.940;2022-12-11T13:31:00;13.70;37.60
21891;DHT22;11110;52.386;16.940;2022-12-11T13:33:28;13.70;37.70
21891;DHT22;11110;52.386;16.940;2022-12-11T13:36:27;13.80;37.80
21891;DHT22;11110;52.386;16.940;2022-12-11T13:39:01;13.90;37.90
21891;DHT22;11110;52.386;16.940;2022-12-11T13:41:33;14.10;37.80
21891;DHT22;11110;52.386;16.940;2022-12-11T13:44:05;14.20;37.60
21891;DHT22;11110;52.386;16.940;2022-12-11T13:46:36;14.10;37.40
21891;DHT22;11110;52.386;16.940;2022-12-11T13:49:07;14.00;37.50
21891;DHT22;11110;52.386;16.940;2022-12-11T13:51:51;14.00;37.60
21891;DHT22;11110;52.386;16.940;2022-12-11T13:54:21;14.00;37.70
21891;DHT22;11110;52.386;16.940;2022-12-11T13:56:57;14.00;37.80
21891;DHT22;11110;52.386;16.940;2022-12-11T13:59:32;14.20;37.70
21891;DHT22;11110;52.386;16.940;2022-12-11T14:02:05;14.20;37.60
21891;DHT22;11110;52.386;16.940;2022-12-11T14:04:40;14.20;37.80
21891;DHT22;11110;52.386;16.940;2022-12-11T14:07:10;14.20;37.60
21891;DHT22;11110;52.386;16.940;2022-12-11T14:09:41;14.20;37.70
21891;DHT22;11110;52.386;16.940;2022-12-11T14:12:16;14.30;37.70
21891;DHT22;11110;52.386;16.940;2022-12-11T14:14:49;14.20;37.90
21891;DHT22;11110;52.386;16.940;2022-12-11T14:17:22;14.60;37.60
21891;DHT22;11110;52.386;16.940;2022-12-11T14:19:52;14.70;37.50
21891;DHT22;11110;52.386;16.940;2022-12-11T14:22:23;14.70;37.40
21891;DHT22;11110;52.386;16.940;2022-12-11T14:24:53;14.70;37.50
21891;DHT22;11110;52.386;16.940;2022-12-11T14:27:24;14.60;37.70
21891;DHT22;11110;52.386;16.940;2022-12-11T14:29:54;14.80;37.80
21891;DHT22;11110;52.386;16.940;2022-12-11T14:32:29;14.90;37.80
21891;DHT22;11110;52.386;16.940;2022-12-11T14:35:00;14.70;37.80
21891;DHT22;11110;52.386;16.940;2022-12-11T14:37:30;14.70;38.00
21891;DHT22;11110;52.386;16.940;2022-12-11T14:40:00;14.90;38.10
21891;DHT22;11110;52.386;16.940;2022-12-11T14:42:32;14.90;38.00
21891;DHT22;11110;52.386;16.940;2022-12-11T14:45:11;15.00;38.00
21891;DHT22;11110;52.386;16.940;2022-12-11T14:47:46;15.00;37.90
21891;DHT22;11110;52.386;16.940;2022-12-11T14:53:08;15.00;37.70
21891;DHT22;11110;52.386;16.940;2022-12-11T14:55:40;14.90;38.10
21891;DHT22;11110;52.386;16.940;2022-12-11T14:58:14;14.70;38.10
21891;DHT22;11110;52.386;16.940;2022-12-11T15:00:55;14.50;38.40
21891;DHT22;11110;52.386;16.940;2022-12-11T15:03:30;14.70;38.50
21891;DHT22;11110;52.386;16.940;2022-12-11T15:06:00;14.50;38.70
21891;DHT22;11110;52.386;16.940;2022-12-11T15:08:31;14.80;38.60
21891;DHT22;11110;52.386;16.940;2022-12-11T15:11:03;14.80;38.60
21891;DHT22;11110;52.386;16.940;2022-12-11T15:13:35;14.70;38.70
21891;DHT22;11110;52.386;16.940;2022-12-11T15:16:06;14.80;38.90
21891;DHT22;11110;52.386;16.940;2022-12-11T15:18:40;14.90;38.60
21891;DHT22;11110;52.386;16.940;2022-12-11T15:21:10;15.10;38.70
21891;DHT22;11110;52.386;16.940;2022-12-11T15:23:49;15.10;38.30
21891;DHT22;11110;52.386;16.940;2022-12-11T15:26:19;15.20;38.30
21891;DHT22;11110;52.386;16.940;2022-12-11T15:28:58;15.00;38.40
21891;DHT22;11110;52.386;16.940;2022-12-11T15:31:30;15.10;38.40
21891;DHT22;11110;52.386;16.940;2022-12-11T15:33:59;15.00;38.50
21891;DHT22;11110;52.386;16.940;2022-12-11T15:36:32;15.10;38.40
21891;DHT22;11110;52.386;16.940;2022-12-11T15:39:02;15.00;38.50
21891;DHT22;11110;52.386;16.940;2022-12-11T15:41:31;15.20;38.60
21891;DHT22;11110;52.386;16.940;2022-12-11T15:44:02;15.00;38.50
21891;DHT22;11110;52.386;16.940;2022-12-11T15:46:35;15.30;38.60
21891;DHT22;11110;52.386;16.940;2022-12-11T15:49:09;14.90;39.20